Time;durP1;ratioP1;P1;durP2;ratioP2;P2;SDS_P1;SDS_P2;PMS_P1;PMS_P2;Temp;Humidity;BMP_temperature;BMP_pressure;BME280_temperature;BME280_humidity;BME280_pressure;Samples;Min_cycle;Max_cycle;Signal;HPM_P1;HPM_P2
2021/05/13 00:01:51;;;;;;;13.32;7.38;;;;;;;9.60;84.19;99561.81;5054956;28;20410;-70
2021/05/13 00:04:17;;;;;;;11.05;7.20;;;;;;;9.59;83.75;99557.44;5055054;28;20072;-71
2021/05/13 00:06:44;;;;;;;10.15;6.97;;;;;;;9.72;83.54;99560.13;5054846;28;20600;-69
2021/05/13 00:09:11;;;;;;;10.63;7.32;;;;;;;9.57;83.84;99556.66;5054739;28;20049;-70
2021/05/13 00:11:39;;;;;;;11.40;6.90;;;;;;;9.57;83.64;99538.88;5054307;28;20049;-69
2021/05/13 00:14:07;;;;;;;12.82;7.90;;;;;;;9.61;83.66;99548.41;5054946;28;20057;-70
2021/05/13 00:16:35;;;;;;;12.18;7.28;;;;;;;9.54;84.26;99551.56;5058221;28;20118;-70
2021/05/13 00:19:08;;;;;;;12.35;7.30;;;;;;;9.52;84.25;99543.66;5057140;28;20053;-69
2021/05/13 00:21:37;;;;;;;11.82;6.93;;;;;;;9.47;84.44;99546.63;5058536;28;20457;-70
2021/05/13 00:24:05;;;;;;;13.48;7.70;;;;;;;9.43;84.21;99541.63;5058400;28;20423;-72
2021/05/13 00:26:40;;;;;;;11.50;7.28;;;;;;;9.34;85.47;99557.25;5058627;28;20059;-72
2021/05/13 00:29:13;;;;;;;10.40;7.38;;;;;;;9.42;85.06;99545.25;5058615;28;20060;-71
2021/05/13 00:31:41;;;;;;;12.05;8.00;;;;;;;9.46;84.46;99536.94;5058401;28;20500;-70
2021/05/13 00:34:08;;;;;;;10.98;7.22;;;;;;;9.41;84.65;99540.88;5058198;28;20140;-68
2021/05/13 00:36:37;;;;;;;11.57;8.00;;;;;;;9.41;85.00;99541.72;5058167;28;20111;-72
2021/05/13 00:39:07;;;;;;;11.82;7.95;;;;;;;9.44;84.70;99536.19;5058008;28;20053;-70
2021/05/13 00:41:34;;;;;;;14.18;8.13;;;;;;;9.42;84.44;99534.59;5058229;28;20110;-70
2021/05/13 00:44:01;;;;;;;10.77;7.28;;;;;;;9.43;84.21;99533.63;5058289;28;20388;-72
2021/05/13 00:46:30;;;;;;;12.18;6.95;;;;;;;9.43;84.28;99528.31;5057738;28;20052;-69
2021/05/13 00:49:01;;;;;;;12.98;6.70;;;;;;;9.44;83.96;99530.88;5058164;28;20128;-71
2021/05/13 00:51:28;;;;;;;12.00;6.85;;;;;;;9.36;84.25;99528.72;5058493;28;20045;-70
2021/05/13 00:53:55;;;;;;;13.20;7.10;;;;;;;9.28;84.85;99525.69;5057711;28;20060;-72
2021/05/13 00:56:23;;;;;;;11.05;6.90;;;;;;;9.30;84.67;99528.25;5057927;28;20331;-71
2021/05/13 00:58:51;;;;;;;11.45;7.07;;;;;;;9.29;84.46;99527.41;5058003;28;20126;-69
2021/05/13 01:01:20;;;;;;;9.82;6.28;;;;;;;9.32;84.39;99523.69;5058055;28;20041;-71
2021/05/13 01:03:47;;;;;;;11.55;6.50;;;;;;;9.20;84.59;99533.31;5057969;28;20458;-73
2021/05/13 01:06:15;;;;;;;10.25;5.80;;;;;;;9.18;84.75;99529.91;5057956;28;20068;-71
2021/05/13 01:08:42;;;;;;;9.15;6.25;;;;;;;9.11;84.92;99529.47;5056946;28;20061;-70
2021/05/13 01:11:12;;;;;;;9.93;6.60;;;;;;;9.02;84.72;99519.41;5057932;28;20055;-70
2021/05/13 01:14:13;;;;;;;13.40;6.55;;;;;;;9.01;84.72;99529.22;5058008;28;20118;-71
2021/05/13 01:16:51;;;;;;;9.88;6.20;;;;;;;9.07;84.67;99533.28;5057519;28;20056;-73
2021/05/13 01:19:19;;;;;;;9.57;5.88;;;;;;;9.09;84.49;99526.03;5038892;28;20144;-70
2021/05/13 01:21:46;;;;;;;9.63;5.88;;;;;;;9.10;84.45;99528.59;5037505;28;20427;-70
2021/05/13 01:24:13;;;;;;;8.73;5.63;;;;;;;9.15;83.71;99530.13;5037380;28;20053;-72
2021/05/13 01:26:47;;;;;;;8.38;5.30;;;;;;;9.19;83.59;99528.94;5036392;28;20111;-70
2021/05/13 01:29:18;;;;;;;6.60;5.38;;;;;;;9.15;83.95;99533.63;5037710;28;20156;-71
2021/05/13 01:31:46;;;;;;;8.52;5.22;;;;;;;9.04;84.47;99528.16;5038381;28;20072;-73
2021/05/13 01:34:13;;;;;;;8.65;5.20;;;;;;;9.06;84.34;99529.75;5038709;28;20076;-73
2021/05/13 01:36:39;;;;;;;10.63;5.65;;;;;;;8.95;84.96;99527.78;5037616;28;20084;-72
2021/05/13 01:39:10;;;;;;;8.13;6.32;;;;;;;8.93;85.21;99529.69;5036682;28;20054;-71
2021/05/13 01:41:39;;;;;;;9.43;5.53;;;;;;;8.79;85.51;99530.59;5037464;28;20119;-71
2021/05/13 01:44:06;;;;;;;9.75;5.75;;;;;;;8.73;85.61;99516.81;5037459;28;20053;-69
2021/05/13 01:46:33;;;;;;;8.88;5.95;;;;;;;8.77;85.55;99534.31;5036627;28;20053;-71
2021/05/13 01:49:00;;;;;;;10.43;5.47;;;;;;;8.70;85.61;99520.53;5037553;28;20401;-72
2021/05/13 01:51:27;;;;;;;11.02;5.38;;;;;;;8.72;85.34;99523.09;5036246;28;20056;-69
2021/05/13 01:53:54;;;;;;;8.35;5.63;;;;;;;8.66;85.14;99511.06;5037212;28;20049;-72
2021/05/13 01:56:20;;;;;;;9.35;5.75;;;;;;;8.60;85.39;99519.41;5036871;28;20061;-71
2021/05/13 01:58:47;;;;;;;9.75;5.70;;;;;;;8.49;85.72;99512.91;5036350;28;20049;-70
2021/05/13 02:01:15;;;;;;;8.90;5.00;;;;;;;8.46;85.56;99514.91;5036817;28;20111;-69
2021/05/13 02:03:44;;;;;;;13.27;5.28;;;;;;;8.29;85.77;99512.34;5036688;28;20053;-69
2021/05/13 02:06:11;;;;;;;8.77;5.40;;;;;;;8.39;85.87;99525.09;5036769;28;20401;-71
2021/05/13 02:08:38;;;;;;;12.25;5.90;;;;;;;8.34;85.87;99517.38;5036488;28;20058;-70
2021/05/13 02:11:05;;;;;;;7.38;5.47;;;;;;;8.24;85.99;99513.59;5035573;28;20435;-70
2021/05/13 02:13:32;;;;;;;8.27;5.40;;;;;;;8.15;86.34;99497.28;5036641;28;20111;-70
2021/05/13 02:15:58;;;;;;;11.25;5.43;;;;;;;8.18;86.21;99509.53;5036605;28;20097;-71
2021/05/13 02:18:25;;;;;;;12.20;5.60;;;;;;;8.17;86.32;99501.63;5046527;28;20061;-70
2021/05/13 02:20:52;;;;;;;7.70;6.03;;;;;;;8.22;85.95;99505.72;5055908;28;20134;-70
2021/05/13 02:23:19;;;;;;;11.27;5.68;;;;;;;8.11;85.96;99493.09;5056304;28;20056;-70
2021/05/13 02:25:47;;;;;;;11.23;5.60;;;;;;;8.10;85.75;99503.81;5056336;28;20083;-70
2021/05/13 02:28:14;;;;;;;6.75;5.13;;;;;;;8.11;85.78;99494.88;5056104;28;20059;-69
2021/05/13 02:30:41;;;;;;;7.70;5.05;;;;;;;8.01;86.06;99495.44;5056307;28;20057;-71
2021/05/13 02:33:08;;;;;;;8.57;4.88;;;;;;;8.03;86.22;99498.03;5056374;28;20423;-71
2021/05/13 02:35:35;;;;;;;13.13;5.20;;;;;;;7.94;86.20;99491.47;5056236;28;20064;-71
2021/05/13 02:38:02;;;;;;;11.25;5.00;;;;;;;7.95;86.16;99487.84;5055700;28;20103;-70
2021/05/13 02:40:38;;;;;;;7.47;4.68;;;;;;;7.97;86.15;99477.13;5056134;28;20106;-71
2021/05/13 02:43:05;;;;;;;8.73;5.45;;;;;;;7.94;86.35;99478.19;5055829;28;20385;-70
2021/05/13 02:45:32;;;;;;;7.72;4.68;;;;;;;7.89;86.33;99477.59;5056093;28;20049;-69
2021/05/13 02:47:59;;;;;;;9.85;5.05;;;;;;;7.82;86.59;99474.47;5056063;28;20106;-72
2021/05/13 02:50:26;;;;;;;9.60;4.57;;;;;;;7.81;86.49;99464.81;5038500;28;20521;-70
2021/05/13 02:52:53;;;;;;;6.60;5.07;;;;;;;7.87;86.34;99460.91;5055828;28;20045;-71
2021/05/13 02:55:19;;;;;;;8.80;5.15;;;;;;;7.82;86.35;99461.19;5055456;28;20320;-69
2021/05/13 02:57:47;;;;;;;10.30;4.60;;;;;;;7.72;86.54;99455.59;5055735;28;20048;-70
2021/05/13 03:00:38;;;;;;;8.15;4.95;;;;;;;7.67;87.17;99457.66;5055601;28;20048;-70
2021/05/13 03:03:01;;;;;;;8.50;4.82;;;;;;;7.71;86.62;99451.22;5055403;28;20061;-72
2021/05/13 03:05:28;;;;;;;9.25;4.88;;;;;;;7.66;86.92;99450.63;5055498;28;20057;-70
2021/05/13 03:08:00;;;;;;;11.52;4.90;;;;;;;7.67;86.78;99448.84;5055401;28;20057;-71
2021/05/13 03:13:13;;;;;;;9.35;5.13;;;;;;;7.59;86.56;99449.31;5055360;28;20446;-69
2021/05/13 03:15:40;;;;;;;7.28;4.70;;;;;;;7.53;87.13;99445.22;5055548;28;20456;-71
2021/05/13 03:18:08;;;;;;;9.85;5.30;;;;;;;7.50;86.87;99434.75;5045684;28;20127;-70
2021/05/13 03:20:38;;;;;;;7.75;5.07;;;;;;;7.44;87.23;99441.31;5035107;28;20058;-69
2021/05/13 03:23:07;;;;;;;6.97;4.72;;;;;;;7.42;87.01;99434.38;5034445;28;20148;-72
2021/05/13 03:25:36;;;;;;;7.53;5.50;;;;;;;7.39;87.30;99440.72;5035471;28;20054;-69
2021/05/13 03:28:09;;;;;;;6.82;4.72;;;;;;;7.34;87.39;99437.47;5035264;28;20080;-70
2021/05/13 03:30:43;;;;;;;8.77;5.15;;;;;;;7.36;87.15;99437.41;5035460;28;20099;-72
2021/05/13 03:33:10;;;;;;;6.10;5.00;;;;;;;7.35;87.31;99441.84;5035103;28;20087;-70
2021/05/13 03:35:37;;;;;;;8.65;4.97;;;;;;;7.35;87.14;99441.84;5035544;28;20115;-69
2021/05/13 03:38:04;;;;;;;6.22;4.50;;;;;;;7.36;87.22;99437.41;5035318;28;20119;-71
2021/05/13 03:40:32;;;;;;;12.88;5.35;;;;;;;7.35;87.08;99436.53;5035346;28;20065;-69
2021/05/13 03:43:02;;;;;;;12.05;4.40;;;;;;;7.26;87.33;99431.78;5034812;28;20481;-71
2021/05/13 03:45:30;;;;;;;7.13;4.78;;;;;;;7.29;87.63;99439.53;5035325;28;20053;-70
2021/05/13 03:48:02;;;;;;;6.00;4.32;;;;;;;7.28;87.59;99440.50;5034952;28;20057;-72
2021/05/13 03:50:31;;;;;;;9.20;4.43;;;;;;;7.27;87.36;99438.78;5036638;28;20053;-72
2021/05/13 03:52:58;;;;;;;8.07;4.30;;;;;;;7.35;87.00;99436.53;5038292;28;20079;-69
2021/05/13 03:55:25;;;;;;;8.30;5.00;;;;;;;7.41;86.84;99441.47;5022127;28;20053;-71
2021/05/13 03:57:55;;;;;;;8.63;4.82;;;;;;;7.42;86.31;99437.88;5039245;28;20068;-71
2021/05/13 04:00:29;;;;;;;9.07;4.03;;;;;;;7.37;86.62;99436.44;5039347;28;20064;-73
2021/05/13 04:02:56;;;;;;;8.77;4.38;;;;;;;7.35;86.83;99436.53;5039077;28;20056;-71
2021/05/13 04:05:23;;;;;;;12.25;4.07;;;;;;;7.37;86.59;99439.09;5038990;28;20049;-72
2021/05/13 04:07:50;;;;;;;8.00;4.15;;;;;;;7.27;87.17;99438.78;5038819;28;20111;-71
2021/05/13 04:10:17;;;;;;;10.13;4.43;;;;;;;7.24;87.08;99437.16;5039083;28;20057;-70
2021/05/13 04:12:44;;;;;;;9.65;4.07;;;;;;;7.24;87.05;99437.16;5037712;28;20116;-71
2021/05/13 04:15:12;;;;;;;11.05;5.07;;;;;;;7.23;87.10;99434.63;5038826;28;20053;-68
2021/05/13 04:17:39;;;;;;;5.82;3.90;;;;;;;7.24;86.97;99434.50;5043278;28;20103;-71
2021/05/13 04:20:08;;;;;;;8.02;4.43;;;;;;;7.27;87.01;99429.03;5058415;28;20091;-71
2021/05/13 04:22:35;;;;;;;9.63;4.40;;;;;;;7.28;87.12;99429.88;5058572;28;20048;-68
2021/05/13 04:25:04;;;;;;;5.90;4.07;;;;;;;7.25;87.27;99422.09;5057361;28;20053;-70
2021/05/13 04:27:31;;;;;;;12.93;5.22;;;;;;;7.33;87.02;99428.69;5058539;28;20095;-71
2021/05/13 04:29:58;;;;;;;8.10;3.90;;;;;;;7.27;87.23;99433.47;5057325;28;20049;-72
2021/05/13 04:32:25;;;;;;;9.65;4.10;;;;;;;7.34;87.32;99437.47;5057183;28;20505;-70
2021/05/13 04:34:52;;;;;;;11.93;4.72;;;;;;;7.29;87.56;99427.13;5058312;28;20442;-71
2021/05/13 04:37:18;;;;;;;7.53;3.67;;;;;;;7.39;87.79;99429.22;5057177;28;20059;-70
2021/05/13 04:39:45;;;;;;;7.20;4.13;;;;;;;7.40;87.94;99425.66;5058548;28;20087;-69
2021/05/13 04:42:12;;;;;;;9.02;4.15;;;;;;;7.44;87.72;99436.00;5058250;28;20049;-69
2021/05/13 04:44:38;;;;;;;12.10;3.80;;;;;;;7.52;87.79;99434.69;5058177;28;20053;-71
2021/05/13 04:49:52;;;;;;;9.63;4.28;;;;;;;7.58;87.55;99426.34;5058167;28;20426;-68
2021/05/13 04:52:21;;;;;;;9.02;3.47;;;;;;;7.65;87.52;99433.00;5058328;28;20045;-69
2021/05/13 04:54:51;;;;;;;14.68;4.40;;;;;;;7.76;87.71;99427.03;5058106;28;20072;-69
2021/05/13 04:57:18;;;;;;;7.85;3.42;;;;;;;7.81;87.84;99432.06;5057813;28;20056;-70
2021/05/13 04:59:46;;;;;;;9.68;5.15;;;;;;;7.80;88.02;99435.66;5057773;28;20139;-69
2021/05/13 05:02:13;;;;;;;6.05;3.40;;;;;;;7.83;87.99;99436.31;5057642;28;20124;-71
2021/05/13 05:04:39;;;;;;;7.38;3.50;;;;;;;7.88;88.16;99433.38;5057891;28;20061;-70
2021/05/13 05:07:06;;;;;;;9.18;3.95;;;;;;;7.87;88.06;99421.06;5057777;28;20052;-69
2021/05/13 05:09:33;;;;;;;10.00;4.40;;;;;;;7.97;87.57;99430.19;5057401;28;20052;-71
2021/05/13 05:12:00;;;;;;;8.35;4.07;;;;;;;8.08;87.33;99423.31;5057455;28;20053;-72
2021/05/13 05:14:27;;;;;;;7.30;3.90;;;;;;;8.14;87.14;99418.50;5056769;28;20381;-73
2021/05/13 05:16:53;;;;;;;9.85;4.30;;;;;;;8.20;86.81;99417.25;5057886;28;20049;-70
2021/05/13 05:19:20;;;;;;;7.95;3.72;;;;;;;8.27;86.84;99415.03;5038515;28;20068;-72
2021/05/13 05:21:47;;;;;;;9.75;4.25;;;;;;;8.39;87.23;99418.75;5037463;28;20433;-71
2021/05/13 05:24:14;;;;;;;9.65;3.80;;;;;;;8.50;87.31;99418.88;5037448;28;20053;-73
2021/05/13 05:26:40;;;;;;;6.85;3.70;;;;;;;8.54;87.56;99415.13;5037658;28;20108;-70
2021/05/13 05:29:07;;;;;;;8.73;3.88;;;;;;;8.58;87.04;99404.25;5036599;28;20054;-73
2021/05/13 05:31:33;;;;;;;6.90;4.13;;;;;;;8.65;86.33;99406.44;5037430;28;20046;-72
2021/05/13 05:34:00;;;;;;;12.20;3.95;;;;;;;8.72;85.40;99404.22;5037507;28;20057;-73
2021/05/13 05:36:28;;;;;;;9.35;3.90;;;;;;;8.74;85.19;99391.69;5037649;28;20426;-72
2021/05/13 05:38:55;;;;;;;9.30;4.03;;;;;;;8.85;85.29;99390.09;5036167;28;20057;-73
2021/05/13 05:41:23;;;;;;;7.82;4.63;;;;;;;8.96;85.39;99388.47;5036316;28;20072;-73
2021/05/13 05:43:49;;;;;;;11.38;4.18;;;;;;;9.04;84.60;99390.59;5037486;28;20755;-72
2021/05/13 05:46:16;;;;;;;10.75;3.83;;;;;;;9.10;84.77;99390.16;5037042;28;20457;-72
2021/05/13 05:48:43;;;;;;;9.13;4.15;;;;;;;9.18;84.80;99388.81;5036927;28;20045;-73
2021/05/13 05:51:10;;;;;;;11.45;3.85;;;;;;;9.26;84.55;99389.13;5037057;28;20057;-70
2021/05/13 05:53:37;;;;;;;6.38;3.83;;;;;;;9.26;84.87;99367.81;5037073;28;20049;-71
2021/05/13 05:56:04;;;;;;;10.43;4.50;;;;;;;9.45;84.21;99390.53;5035956;28;20056;-69
2021/05/13 05:58:31;;;;;;;9.30;5.60;;;;;;;9.55;83.14;99388.97;5036691;28;20049;-72
2021/05/13 06:00:58;;;;;;;10.75;4.63;;;;;;;9.69;81.24;99381.81;5036458;28;20434;-71
2021/05/13 06:03:25;;;;;;;8.80;4.28;;;;;;;9.75;81.62;99381.38;5036825;28;20374;-71
2021/05/13 06:05:52;;;;;;;7.28;4.05;;;;;;;9.84;80.11;99370.06;5035647;28;20445;-70
2021/05/13 06:08:19;;;;;;;6.82;3.92;;;;;;;9.94;79.20;99369.41;5036670;28;20076;-73
2021/05/13 06:10:45;;;;;;;9.70;4.15;;;;;;;10.09;78.41;99368.34;5036579;28;20496;-72
2021/05/13 06:13:12;;;;;;;7.65;4.00;;;;;;;10.14;78.53;99373.31;5036150;28;20073;-73
2021/05/13 06:15:39;;;;;;;8.50;3.85;;;;;;;10.25;78.19;99368.03;5036440;28;20053;-71
2021/05/13 06:18:06;;;;;;;7.13;3.90;;;;;;;10.41;76.50;99370.44;5044940;28;20052;-73
2021/05/13 06:20:34;;;;;;;14.02;4.07;;;;;;;10.48;76.77;99367.38;5056889;28;20134;-71
2021/05/13 06:23:03;;;;;;;12.00;4.20;;;;;;;10.56;75.71;99371.19;5056600;28;20077;-70
2021/05/13 06:25:30;;;;;;;9.43;4.47;;;;;;;10.62;75.86;99367.19;5056647;28;20060;-72
2021/05/13 06:27:57;;;;;;;9.25;4.22;;;;;;;10.70;75.98;99370.16;5055310;28;20099;-70
2021/05/13 06:30:24;;;;;;;12.88;4.70;;;;;;;10.81;75.08;99363.16;5056393;28;20049;-71
2021/05/13 06:32:52;;;;;;;13.63;3.35;;;;;;;10.88;74.81;99371.59;5056122;28;20053;-71
2021/05/13 06:35:20;;;;;;;11.20;3.65;;;;;;;10.95;74.77;99365.66;5056080;28;20045;-70
2021/05/13 06:37:47;;;;;;;10.60;3.92;;;;;;;11.07;74.12;99366.53;5056270;28;20049;-70
2021/05/13 06:40:15;;;;;;;11.15;3.60;;;;;;;11.16;72.64;99366.81;5055019;28;20103;-72
2021/05/13 06:42:42;;;;;;;7.45;3.33;;;;;;;11.20;72.71;99354.91;5055900;28;20048;-70
2021/05/13 06:45:09;;;;;;;10.40;3.22;;;;;;;11.33;72.75;99362.84;5056083;28;20099;-68
2021/05/13 06:47:38;;;;;;;10.63;3.42;;;;;;;11.39;72.53;99357.03;5055743;28;20390;-72
2021/05/13 06:50:07;;;;;;;10.90;3.53;;;;;;;11.50;72.63;99362.38;5038739;28;20106;-70
2021/05/13 06:52:33;;;;;;;11.60;3.88;;;;;;;11.62;72.61;99365.06;5056051;28;20048;-68
2021/05/13 06:55:00;;;;;;;12.65;3.13;;;;;;;11.73;71.87;99366.91;5055843;28;20053;-71
2021/05/13 06:57:27;;;;;;;7.00;3.08;;;;;;;11.93;70.05;99362.66;5055627;28;20083;-72
2021/05/13 06:59:54;;;;;;;6.07;2.88;;;;;;;11.92;69.41;99358.25;5055774;28;20075;-69
2021/05/13 07:02:22;;;;;;;6.40;2.70;;;;;;;12.01;68.45;99354.88;5055495;28;20049;-71
2021/05/13 07:04:48;;;;;;;9.93;3.33;;;;;;;12.21;66.10;99355.94;5055527;28;20053;-73
2021/05/13 07:07:15;;;;;;;6.05;2.03;;;;;;;12.27;65.70;99361.78;5055639;28;20057;-70
2021/05/13 07:09:44;;;;;;;9.50;2.60;;;;;;;12.31;65.58;99357.91;5055531;28;20053;-69
2021/05/13 07:12:11;;;;;;;8.20;2.50;;;;;;;12.47;66.20;99352.13;5055457;28;20102;-71
2021/05/13 07:14:37;;;;;;;8.43;2.33;;;;;;;12.52;64.64;99349.09;5054588;28;20111;-70
2021/05/13 07:17:04;;;;;;;6.72;1.85;;;;;;;12.65;65.35;99357.81;5055543;28;20110;-69
2021/05/13 07:19:31;;;;;;;9.70;2.08;;;;;;;12.74;64.84;99351.69;5035414;28;20057;-71
2021/05/13 07:21:57;;;;;;;5.68;1.85;;;;;;;12.78;63.27;99352.28;5035253;28;20064;-69
2021/05/13 07:24:24;;;;;;;5.38;2.03;;;;;;;13.09;63.27;99348.84;5035292;28;20435;-72
2021/05/13 07:26:50;;;;;;;6.38;1.92;;;;;;;13.15;64.17;99346.50;5043687;28;20045;-69
2021/05/13 07:29:18;;;;;;;6.60;1.77;;;;;;;13.16;64.12;99356.25;5054005;28;20417;-72
2021/05/13 07:31:44;;;;;;;7.75;2.30;;;;;;;13.23;63.12;99347.69;5055217;28;20057;-72
2021/05/13 07:34:11;;;;;;;4.63;1.60;;;;;;;13.40;61.61;99352.41;5049325;28;20052;-70
2021/05/13 07:36:38;;;;;;;6.35;1.90;;;;;;;13.43;59.69;99352.19;5048175;28;20084;-69
2021/05/13 07:39:06;;;;;;;5.40;1.30;;;;;;;13.65;59.47;99354.84;5042180;28;20059;-69
2021/05/13 07:41:32;;;;;;;5.50;2.08;;;;;;;13.68;60.04;99349.22;5043877;28;20068;-72
2021/05/13 07:43:59;;;;;;;4.97;1.70;;;;;;;13.73;56.57;99352.34;5042590;28;20107;-71
2021/05/13 07:46:33;;;;;;;4.63;1.20;;;;;;;13.76;54.44;99348.53;5045708;28;20349;-71
2021/05/13 07:49:00;;;;;;;7.18;1.67;;;;;;;13.80;56.51;99347.28;5046798;28;20721;-69
2021/05/13 07:51:27;;;;;;;3.00;1.30;;;;;;;13.94;52.38;99344.25;5047579;28;20049;-70
2021/05/13 07:53:53;;;;;;;4.97;1.20;;;;;;;14.06;51.07;99341.47;5051612;28;20417;-70
2021/05/13 07:56:20;;;;;;;5.32;1.40;;;;;;;14.16;49.07;99339.63;5037787;28;20103;-71
2021/05/13 07:58:47;;;;;;;5.32;1.13;;;;;;;14.29;48.77;99330.50;5052408;28;20055;-71
2021/05/13 08:01:14;;;;;;;3.88;1.05;;;;;;;14.37;48.92;99317.22;5053674;28;20385;-69
2021/05/13 08:03:41;;;;;;;4.70;1.13;;;;;;;14.63;49.53;99332.78;5054924;28;20053;-68
2021/05/13 08:06:08;;;;;;;2.90;0.95;;;;;;;14.84;49.82;99332.69;5048894;28;20050;-71
2021/05/13 08:08:35;;;;;;;8.52;1.98;;;;;;;15.18;48.45;99332.25;5043471;28;20453;-68
2021/05/13 08:11:01;;;;;;;7.32;1.35;;;;;;;15.27;47.11;99330.53;5053579;28;20053;-71
2021/05/13 08:13:30;;;;;;;5.97;1.20;;;;;;;15.22;47.53;99330.13;5054790;28;20103;-69
2021/05/13 08:15:57;;;;;;;5.32;1.70;;;;;;;15.31;46.82;99331.91;5047151;28;20107;-69
2021/05/13 08:18:25;;;;;;;5.85;1.50;;;;;;;15.24;47.35;99329.97;5039318;28;20049;-68
2021/05/13 08:20:53;;;;;;;8.10;1.40;;;;;;;15.25;48.18;99337.88;5034726;28;20061;-72
2021/05/13 08:23:20;;;;;;;6.68;1.45;;;;;;;15.18;48.80;99328.69;5035403;28;20076;-75
2021/05/13 08:25:47;;;;;;;7.60;1.60;;;;;;;15.25;49.21;99345.09;5042376;28;20054;-75
2021/05/13 08:28:13;;;;;;;5.60;1.42;;;;;;;15.31;47.70;99334.59;5045401;28;20388;-73
2021/05/13 08:30:40;;;;;;;6.18;1.30;;;;;;;15.34;49.98;99328.09;5043513;28;20055;-73
2021/05/13 08:33:07;;;;;;;2.72;1.48;;;;;;;15.42;48.84;99328.22;5052744;28;20059;-74
2021/05/13 08:35:34;;;;;;;3.67;1.40;;;;;;;15.36;47.67;99319.91;5043172;28;20136;-74
2021/05/13 08:38:01;;;;;;;10.63;1.40;;;;;;;15.28;47.88;99326.84;5048086;28;20804;-74
2021/05/13 08:40:27;;;;;;;4.55;1.20;;;;;;;15.32;49.79;99328.22;5048401;28;20049;-72
2021/05/13 08:42:54;;;;;;;6.95;1.77;;;;;;;15.30;46.66;99318.63;5046703;28;20176;-75
2021/05/13 08:45:22;;;;;;;7.13;1.30;;;;;;;15.37;46.32;99321.59;5039733;28;20045;-74
2021/05/13 08:47:52;;;;;;;3.72;1.23;;;;;;;15.52;48.54;99333.56;5038967;28;20049;-73
2021/05/13 08:50:19;;;;;;;8.27;1.42;;;;;;;15.50;49.00;99294.38;5042055;28;20399;-76
2021/05/13 08:52:46;;;;;;;5.75;1.25;;;;;;;15.77;45.96;99322.28;5051263;28;20036;-71
2021/05/13 08:55:15;;;;;;;6.88;1.50;;;;;;;15.84;45.85;99318.00;5048697;28;20323;-70
2021/05/13 08:57:43;;;;;;;8.82;1.33;;;;;;;15.89;44.76;99313.03;5049648;28;20123;-72
2021/05/13 09:00:11;;;;;;;6.63;1.52;;;;;;;15.91;44.89;99315.59;5049604;28;20057;-69
2021/05/13 09:02:37;;;;;;;7.15;1.55;;;;;;;15.99;46.41;99315.72;5043145;28;20052;-69
2021/05/13 09:05:05;;;;;;;4.05;1.20;;;;;;;16.04;46.29;99321.50;5044912;28;20358;-70
2021/05/13 09:07:32;;;;;;;4.72;1.10;;;;;;;16.04;46.38;99310.72;5045450;28;20057;-73
2021/05/13 09:10:07;;;;;;;7.43;1.60;;;;;;;16.02;45.10;99315.44;5048302;28;20045;-71
2021/05/13 09:12:39;;;;;;;5.97;1.52;;;;;;;16.04;45.94;99312.56;5048490;28;20057;-70
2021/05/13 09:15:20;;;;;;;5.32;1.30;;;;;;;16.05;47.02;99307.03;5047897;28;20049;-69
2021/05/13 09:17:49;;;;;;;5.68;1.55;;;;;;;16.00;45.81;99304.81;5046685;28;20049;-71
2021/05/13 09:20:29;;;;;;;5.65;1.20;;;;;;;15.98;45.96;99305.94;5041713;28;20049;-71
2021/05/13 09:23:15;;;;;;;4.32;1.80;;;;;;;16.04;45.91;99294.59;5046225;28;20053;-69
2021/05/13 09:25:44;;;;;;;3.63;1.20;;;;;;;16.05;47.20;99307.03;5045843;28;20055;-68
2021/05/13 09:28:11;;;;;;;5.72;1.83;;;;;;;16.06;46.15;99300.66;5044375;28;20045;-68
2021/05/13 09:30:38;;;;;;;6.40;1.67;;;;;;;16.13;46.14;99303.59;5045627;28;20049;-72
2021/05/13 09:33:08;;;;;;;5.07;1.42;;;;;;;16.16;45.65;99297.91;5046953;28;20099;-69
2021/05/13 09:35:37;;;;;;;4.72;1.45;;;;;;;16.26;46.74;99304.09;5048830;28;20045;-73
2021/05/13 09:38:06;;;;;;;7.53;1.48;;;;;;;16.40;46.89;99299.19;5046027;28;20346;-72
2021/05/13 09:40:35;;;;;;;5.63;1.33;;;;;;;16.46;46.96;99297.69;5048098;28;20049;-72
2021/05/13 09:43:21;;;;;;;7.43;2.17;;;;;;;16.55;44.80;99299.47;5046117;28;20430;-71
2021/05/13 09:45:54;;;;;;;;;;;;;;;16.63;45.13;99299.56;5048051;28;20430;-73
2021/05/13 09:48:44;;;;;;;4.68;1.50;;;;;;;16.74;47.04;99298.47;5047011;28;19924;-71
2021/05/13 09:51:20;;;;;;;7.90;1.80;;;;;;;16.76;45.36;99296.47;5045535;28;20096;-71
2021/05/13 09:53:49;;;;;;;4.65;1.48;;;;;;;16.94;45.06;99292.91;5046042;28;20434;-70
2021/05/13 09:56:28;;;;;;;4.53;1.48;;;;;;;16.96;44.42;99294.41;5046436;28;20041;-75
2021/05/13 09:58:56;;;;;;;7.68;1.30;;;;;;;17.02;43.76;99286.75;5045408;28;20151;-70
2021/05/13 10:01:23;;;;;;;7.50;1.48;;;;;;;17.05;44.69;99289.16;5044997;28;20045;-72
2021/05/13 10:03:54;;;;;;;6.40;1.30;;;;;;;17.06;44.61;99280.06;5038449;28;20041;-70
2021/05/13 10:06:21;;;;;;;4.93;1.25;;;;;;;17.17;44.58;99287.88;5035669;28;20053;-69
2021/05/13 10:08:50;;;;;;;6.35;1.25;;;;;;;17.15;46.32;99297.13;5034652;28;20115;-69
2021/05/13 10:11:18;;;;;;;4.45;1.27;;;;;;;17.25;44.54;99287.09;5036600;28;20053;-70
2021/05/13 10:13:45;;;;;;;2.97;1.10;;;;;;;17.27;44.57;99285.06;5035709;28;20049;-69
2021/05/13 10:16:13;;;;;;;7.40;1.50;;;;;;;17.29;43.66;99293.88;5036560;28;20049;-69
2021/05/13 10:18:47;;;;;;;5.20;1.38;;;;;;;17.31;44.48;99280.19;5049238;28;20385;-69
2021/05/13 10:21:23;;;;;;;7.68;1.42;;;;;;;17.35;44.06;99271.66;5056348;28;20492;-70
2021/05/13 10:23:52;;;;;;;6.07;1.55;;;;;;;17.54;46.44;99279.66;5056255;28;20049;-69
2021/05/13 10:26:40;;;;;;;8.27;1.70;;;;;;;17.62;43.75;99274.31;5056551;28;20106;-69
2021/05/13 10:29:19;;;;;;;4.38;1.48;;;;;;;17.72;42.39;99274.19;5056251;28;20060;-69
2021/05/13 10:32:20;;;;;;;3.80;1.35;;;;;;;17.67;43.51;99258.47;5055471;28;20431;-69
2021/05/13 10:34:51;;;;;;;6.45;1.95;;;;;;;17.72;41.79;99266.94;5056489;28;20049;-70
2021/05/13 10:37:30;;;;;;;6.43;1.80;;;;;;;17.69;42.49;99267.25;5055038;28;20778;-69
2021/05/13 10:42:43;;;;;;;7.15;1.20;;;;;;;17.78;42.02;99270.84;5055974;28;20114;-70
2021/05/13 10:45:25;;;;;;;6.00;1.33;;;;;;;17.67;40.72;99271.97;5056145;28;20052;-70
2021/05/13 10:48:09;;;;;;;6.82;1.33;;;;;;;17.73;41.68;99260.53;5055997;28;20085;-70
2021/05/13 10:51:01;;;;;;;7.32;1.73;;;;;;;17.80;40.00;99262.59;5056098;28;20055;-69
2021/05/13 10:53:34;;;;;;;5.68;1.60;;;;;;;17.70;40.51;99260.84;5055775;28;20095;-70
2021/05/13 10:56:27;;;;;;;5.68;1.30;;;;;;;17.68;41.08;99256.59;5056010;28;20126;-69
2021/05/13 10:59:03;;;;;;;7.15;1.63;;;;;;;17.67;42.92;99255.78;5055511;28;20496;-69
2021/05/13 11:01:52;;;;;;;3.25;1.00;;;;;;;17.70;43.55;99247.34;5055760;28;20135;-69
2021/05/13 11:04:21;;;;;;;9.15;1.77;;;;;;;17.67;41.40;99242.28;5054551;28;20076;-70
2021/05/13 11:06:59;;;;;;;;;;;;;;;18.01;41.24;99246.78;5056110;28;20045;-69
2021/05/13 11:09:47;;;;;;;3.85;1.00;;;;;;;18.29;42.30;99242.97;5054439;28;20018;-70
2021/05/13 11:12:15;;;;;;;6.30;1.27;;;;;;;18.50;39.80;99242.50;5055640;28;20335;-70
2021/05/13 11:20:25;;;;;;;4.40;1.50;;;;;;;18.80;38.53;99233.88;5035201;28;20061;-70
2021/05/13 11:22:52;;;;;;;3.47;1.02;;;;;;;18.82;37.71;99238.13;5034364;28;20046;-69
2021/05/13 11:25:19;;;;;;;5.18;1.05;;;;;;;18.82;38.65;99238.13;5035423;28;20107;-70
2021/05/13 11:27:46;;;;;;;7.82;1.63;;;;;;;18.94;38.79;99243.16;5034634;28;20086;-70
2021/05/13 11:30:14;;;;;;;4.38;1.20;;;;;;;18.86;38.07;99236.75;5035764;28;20486;-71
2021/05/13 11:32:41;;;;;;;3.90;1.08;;;;;;;18.75;39.26;99231.69;5039978;28;20057;-73
2021/05/13 11:35:08;;;;;;;4.78;1.23;;;;;;;18.69;38.53;99235.06;5036817;28;20053;-73
2021/05/13 11:37:44;;;;;;;6.22;1.40;;;;;;;18.66;38.96;99247.06;5034117;28;20389;-73
2021/05/13 11:40:30;;;;;;;6.63;1.40;;;;;;;18.73;40.17;99241.81;5035594;28;20125;-73
2021/05/13 11:43:36;;;;;;;5.53;1.30;;;;;;;18.74;37.15;99243.50;5035553;28;20060;-71
2021/05/13 11:46:05;;;;;;;10.13;1.60;;;;;;;18.80;38.43;99242.81;4976845;28;20085;-71
2021/05/13 11:48:38;;;;;;;4.20;1.25;;;;;;;18.86;39.99;99242.16;4979564;28;20097;-72
2021/05/13 11:51:10;;;;;;;7.93;1.70;;;;;;;18.97;38.90;99237.41;5007112;28;20206;-70
2021/05/13 11:53:40;;;;;;;4.82;1.10;;;;;;;18.95;38.27;99239.47;5035155;28;20049;-72
2021/05/13 11:56:08;;;;;;;5.77;1.60;;;;;;;18.95;40.39;99244.88;5045929;28;20049;-70
2021/05/13 11:58:50;;;;;;;4.30;1.20;;;;;;;18.88;40.43;99250.09;5046603;28;20274;-76
2021/05/13 12:01:37;;;;;;;5.88;1.80;;;;;;;18.85;43.93;99247.75;5048929;28;20045;-75